sensor_id;sensor_type;location;lat;lon;timestamp;temperature;humidity
33863;DHT22;20158;51.436;-2.742;2023-08-20T00:01:26;19.20;70.20
33863;DHT22;20158;51.436;-2.742;2023-08-20T00:03:53;19.20;70.30
33863;DHT22;20158;51.436;-2.742;2023-08-20T00:06:20;19.10;70.10
33863;DHT22;20158;51.436;-2.742;2023-08-20T00:08:48;19.10;70.20
33863;DHT22;20158;51.436;-2.742;2023-08-20T00:11:14;19.10;70.30
33863;DHT22;20158;51.436;-2.742;2023-08-20T00:13:40;19.10;70.30
33863;DHT22;20158;51.436;-2.742;2023-08-20T00:16:07;19.00;70.20
33863;DHT22;20158;51.436;-2.742;2023-08-20T00:18:34;19.00;70.30
33863;DHT22;20158;51.436;-2.742;2023-08-20T00:21:01;19.00;70.40
33863;DHT22;20158;51.436;-2.742;2023-08-20T00:23:27;18.90;70.30
33863;DHT22;20158;51.436;-2.742;2023-08-20T00:25:53;18.90;70.30
33863;DHT22;20158;51.436;-2.742;2023-08-20T00:28:20;18.90;70.40
33863;DHT22;20158;51.436;-2.742;2023-08-20T00:30:46;18.90;70.50
33863;DHT22;20158;51.436;-2.742;2023-08-20T00:33:12;18.90;70.50
33863;DHT22;20158;51.436;-2.742;2023-08-20T00:35:39;18.80;70.50
33863;DHT22;20158;51.436;-2.742;2023-08-20T00:38:05;18.80;70.50
33863;DHT22;20158;51.436;-2.742;2023-08-20T00:40:32;18.80;70.50
33863;DHT22;20158;51.436;-2.742;2023-08-20T00:42:58;18.80;70.60
33863;DHT22;20158;51.436;-2.742;2023-08-20T00:45:25;18.80;70.60
33863;DHT22;20158;51.436;-2.742;2023-08-20T00:47:52;18.70;70.50
33863;DHT22;20158;51.436;-2.742;2023-08-20T00:50:18;18.70;70.60
33863;DHT22;20158;51.436;-2.742;2023-08-20T00:52:45;18.70;70.60
33863;DHT22;20158;51.436;-2.742;2023-08-20T00:55:12;18.70;70.60
33863;DHT22;20158;51.436;-2.742;2023-08-20T00:57:41;18.60;70.50
33863;DHT22;20158;51.436;-2.742;2023-08-20T01:00:08;18.60;70.60
33863;DHT22;20158;51.436;-2.742;2023-08-20T01:02:37;18.60;70.60
33863;DHT22;20158;51.436;-2.742;2023-08-20T01:05:06;18.60;70.70
33863;DHT22;20158;51.436;-2.742;2023-08-20T01:07:52;18.60;70.80
33863;DHT22;20158;51.436;-2.742;2023-08-20T01:13:07;18.50;70.70
33863;DHT22;20158;51.436;-2.742;2023-08-20T01:15:33;18.50;70.70
33863;DHT22;20158;51.436;-2.742;2023-08-20T01:17:59;18.50;70.80
33863;DHT22;20158;51.436;-2.742;2023-08-20T01:20:30;18.50;70.80
33863;DHT22;20158;51.436;-2.742;2023-08-20T01:28:31;18.40;70.70
33863;DHT22;20158;51.436;-2.742;2023-08-20T01:30:59;18.40;70.80
33863;DHT22;20158;51.436;-2.742;2023-08-20T01:33:27;18.40;70.90
33863;DHT22;20158;51.436;-2.742;2023-08-20T01:35:54;18.40;70.90
33863;DHT22;20158;51.436;-2.742;2023-08-20T01:38:21;18.40;71.00
33863;DHT22;20158;51.436;-2.742;2023-08-20T01:40:48;18.30;70.90
33863;DHT22;20158;51.436;-2.742;2023-08-20T01:43:15;18.40;71.00
33863;DHT22;20158;51.436;-2.742;2023-08-20T01:45:41;18.30;70.90
33863;DHT22;20158;51.436;-2.742;2023-08-20T01:48:07;18.30;71.00
33863;DHT22;20158;51.436;-2.742;2023-08-20T01:50:34;18.30;71.00
33863;DHT22;20158;51.436;-2.742;2023-08-20T01:53:01;18.30;71.00
33863;DHT22;20158;51.436;-2.742;2023-08-20T01:55:29;18.30;71.10
33863;DHT22;20158;51.436;-2.742;2023-08-20T01:57:55;18.30;71.10
33863;DHT22;20158;51.436;-2.742;2023-08-20T02:00:21;18.30;71.20
33863;DHT22;20158;51.436;-2.742;2023-08-20T02:02:47;18.20;71.00
33863;DHT22;20158;51.436;-2.742;2023-08-20T02:05:12;18.20;71.10
33863;DHT22;20158;51.436;-2.742;2023-08-20T02:07:39;18.20;71.10
33863;DHT22;20158;51.436;-2.742;2023-08-20T02:10:05;18.10;71.00
33863;DHT22;20158;51.436;-2.742;2023-08-20T02:12:31;18.10;71.00
33863;DHT22;20158;51.436;-2.742;2023-08-20T02:14:57;18.10;71.10
33863;DHT22;20158;51.436;-2.742;2023-08-20T02:17:24;18.10;71.10
33863;DHT22;20158;51.436;-2.742;2023-08-20T02:19:50;18.10;71.20
33863;DHT22;20158;51.436;-2.742;2023-08-20T02:22:16;18.00;71.60
33863;DHT22;20158;51.436;-2.742;2023-08-20T02:24:43;18.00;71.10
33863;DHT22;20158;51.436;-2.742;2023-08-20T02:27:09;18.00;71.10
33863;DHT22;20158;51.436;-2.742;2023-08-20T02:29:35;18.00;71.20
33863;DHT22;20158;51.436;-2.742;2023-08-20T02:32:01;17.90;71.00
33863;DHT22;20158;51.436;-2.742;2023-08-20T02:34:29;18.00;71.20
33863;DHT22;20158;51.436;-2.742;2023-08-20T02:36:55;17.90;71.10
33863;DHT22;20158;51.436;-2.742;2023-08-20T02:39:22;17.80;70.90
33863;DHT22;20158;51.436;-2.742;2023-08-20T02:41:49;17.80;70.90
33863;DHT22;20158;51.436;-2.742;2023-08-20T02:44:15;17.80;71.00
33863;DHT22;20158;51.436;-2.742;2023-08-20T02:46:41;17.80;71.00
33863;DHT22;20158;51.436;-2.742;2023-08-20T02:49:10;17.70;70.90
33863;DHT22;20158;51.436;-2.742;2023-08-20T02:51:36;17.70;71.00
33863;DHT22;20158;51.436;-2.742;2023-08-20T02:54:02;17.70;71.00
33863;DHT22;20158;51.436;-2.742;2023-08-20T02:56:28;17.60;70.90
33863;DHT22;20158;51.436;-2.742;2023-08-20T02:58:54;17.60;70.90
33863;DHT22;20158;51.436;-2.742;2023-08-20T03:01:22;17.60;71.00
33863;DHT22;20158;51.436;-2.742;2023-08-20T03:03:48;17.50;70.80
33863;DHT22;20158;51.436;-2.742;2023-08-20T03:06:20;17.60;71.10
33863;DHT22;20158;51.436;-2.742;2023-08-20T03:08:47;17.50;70.90
33863;DHT22;20158;51.436;-2.742;2023-08-20T03:11:13;17.50;71.00
33863;DHT22;20158;51.436;-2.742;2023-08-20T03:13:39;17.50;71.00
33863;DHT22;20158;51.436;-2.742;2023-08-20T03:16:05;17.40;70.80
33863;DHT22;20158;51.436;-2.742;2023-08-20T03:18:31;17.40;70.90
33863;DHT22;20158;51.436;-2.742;2023-08-20T03:20:57;17.40;70.90
33863;DHT22;20158;51.436;-2.742;2023-08-20T03:23:24;17.40;71.00
33863;DHT22;20158;51.436;-2.742;2023-08-20T03:25:50;17.40;71.00
33863;DHT22;20158;51.436;-2.742;2023-08-20T03:28:18;17.30;70.80
33863;DHT22;20158;51.436;-2.742;2023-08-20T03:30:44;17.30;70.90
33863;DHT22;20158;51.436;-2.742;2023-08-20T03:33:12;17.30;70.90
33863;DHT22;20158;51.436;-2.742;2023-08-20T03:35:40;17.30;70.90
33863;DHT22;20158;51.436;-2.742;2023-08-20T03:38:06;17.20;70.80
33863;DHT22;20158;51.436;-2.742;2023-08-20T03:40:32;17.20;70.80
33863;DHT22;20158;51.436;-2.742;2023-08-20T03:42:58;17.20;70.90
33863;DHT22;20158;51.436;-2.742;2023-08-20T03:45:25;17.20;70.90
33863;DHT22;20158;51.436;-2.742;2023-08-20T03:47:51;17.20;71.00
33863;DHT22;20158;51.436;-2.742;2023-08-20T03:50:18;17.10;70.80
33863;DHT22;20158;51.436;-2.742;2023-08-20T03:52:44;17.10;70.80
33863;DHT22;20158;51.436;-2.742;2023-08-20T03:55:10;17.00;71.00
33863;DHT22;20158;51.436;-2.742;2023-08-20T03:57:36;17.00;70.70
33863;DHT22;20158;51.436;-2.742;2023-08-20T04:00:05;17.00;70.80
33863;DHT22;20158;51.436;-2.742;2023-08-20T04:02:41;16.90;70.60
33863;DHT22;20158;51.436;-2.742;2023-08-20T04:05:08;16.90;70.70
33863;DHT22;20158;51.436;-2.742;2023-08-20T04:07:34;16.90;71.20
33863;DHT22;20158;51.436;-2.742;2023-08-20T04:10:00;16.90;70.70
33863;DHT22;20158;51.436;-2.742;2023-08-20T04:12:27;16.90;70.80
33863;DHT22;20158;51.436;-2.742;2023-08-20T04:14:56;16.90;70.80
33863;DHT22;20158;51.436;-2.742;2023-08-20T04:17:22;16.80;70.70
33863;DHT22;20158;51.436;-2.742;2023-08-20T04:19:48;16.80;70.70
33863;DHT22;20158;51.436;-2.742;2023-08-20T04:22:14;16.80;70.80
33863;DHT22;20158;51.436;-2.742;2023-08-20T04:24:41;16.70;70.60
33863;DHT22;20158;51.436;-2.742;2023-08-20T04:27:07;16.70;70.60
33863;DHT22;20158;51.436;-2.742;2023-08-20T04:29:34;16.70;70.60
33863;DHT22;20158;51.436;-2.742;2023-08-20T04:31:59;16.70;70.60
33863;DHT22;20158;51.436;-2.742;2023-08-20T04:34:25;16.70;70.70
33863;DHT22;20158;51.436;-2.742;2023-08-20T04:36:53;16.60;70.50
33863;DHT22;20158;51.436;-2.742;2023-08-20T04:39:20;16.60;70.60
33863;DHT22;20158;51.436;-2.742;2023-08-20T04:41:50;16.60;70.60
33863;DHT22;20158;51.436;-2.742;2023-08-20T04:44:18;16.60;70.60
33863;DHT22;20158;51.436;-2.742;2023-08-20T04:46:46;16.60;70.60
33863;DHT22;20158;51.436;-2.742;2023-08-20T04:49:12;16.60;70.60
33863;DHT22;20158;51.436;-2.742;2023-08-20T04:51:39;16.50;70.50
33863;DHT22;20158;51.436;-2.742;2023-08-20T04:54:05;16.50;70.50
33863;DHT22;20158;51.436;-2.742;2023-08-20T04:56:31;16.50;70.50
33863;DHT22;20158;51.436;-2.742;2023-08-20T04:58:57;16.50;70.50
33863;DHT22;20158;51.436;-2.742;2023-08-20T05:01:41;16.40;70.40
33863;DHT22;20158;51.436;-2.742;2023-08-20T05:04:09;16.40;70.40
33863;DHT22;20158;51.436;-2.742;2023-08-20T05:06:34;16.40;70.40
33863;DHT22;20158;51.436;-2.742;2023-08-20T05:09:01;16.40;70.40
33863;DHT22;20158;51.436;-2.742;2023-08-20T05:11:27;16.30;70.30
33863;DHT22;20158;51.436;-2.742;2023-08-20T05:13:55;16.30;70.30
33863;DHT22;20158;51.436;-2.742;2023-08-20T05:16:23;16.30;70.30
33863;DHT22;20158;51.436;-2.742;2023-08-20T05:18:50;16.30;70.90
33863;DHT22;20158;51.436;-2.742;2023-08-20T05:21:17;16.30;70.30
33863;DHT22;20158;51.436;-2.742;2023-08-20T05:23:43;16.20;70.20
33863;DHT22;20158;51.436;-2.742;2023-08-20T05:26:10;16.30;70.40
33863;DHT22;20158;51.436;-2.742;2023-08-20T05:28:36;16.30;70.40
33863;DHT22;20158;51.436;-2.742;2023-08-20T05:31:03;16.30;70.50
33863;DHT22;20158;51.436;-2.742;2023-08-20T05:33:30;16.30;70.70
33863;DHT22;20158;51.436;-2.742;2023-08-20T05:35:56;16.30;70.80
33863;DHT22;20158;51.436;-2.742;2023-08-20T05:38:22;16.30;70.90
33863;DHT22;20158;51.436;-2.742;2023-08-20T05:40:50;16.30;70.80
33863;DHT22;20158;51.436;-2.742;2023-08-20T05:43:16;16.30;70.80
33863;DHT22;20158;51.436;-2.742;2023-08-20T05:45:43;16.40;71.00
33863;DHT22;20158;51.436;-2.742;2023-08-20T05:48:13;16.40;70.90
33863;DHT22;20158;51.436;-2.742;2023-08-20T05:50:39;16.40;70.90
33863;DHT22;20158;51.436;-2.742;2023-08-20T05:53:05;16.50;71.00
33863;DHT22;20158;51.436;-2.742;2023-08-20T05:55:32;16.50;71.00
33863;DHT22;20158;51.436;-2.742;2023-08-20T05:57:59;16.50;70.90
33863;DHT22;20158;51.436;-2.742;2023-08-20T06:00:26;16.60;71.00
33863;DHT22;20158;51.436;-2.742;2023-08-20T06:02:52;16.60;70.90
33863;DHT22;20158;51.436;-2.742;2023-08-20T06:05:18;16.60;70.90
33863;DHT22;20158;51.436;-2.742;2023-08-20T06:07:44;16.70;71.10
33863;DHT22;20158;51.436;-2.742;2023-08-20T06:10:10;16.70;71.10
33863;DHT22;20158;51.436;-2.742;2023-08-20T06:12:38;16.70;71.10
33863;DHT22;20158;51.436;-2.742;2023-08-20T06:15:05;16.70;71.00
33863;DHT22;20158;51.436;-2.742;2023-08-20T06:17:31;16.80;71.20
33863;DHT22;20158;51.436;-2.742;2023-08-20T06:19:58;16.80;71.20
33863;DHT22;20158;51.436;-2.742;2023-08-20T06:22:24;16.90;71.30
33863;DHT22;20158;51.436;-2.742;2023-08-20T06:24:52;16.90;71.20
33863;DHT22;20158;51.436;-2.742;2023-08-20T06:27:19;16.90;71.20
33863;DHT22;20158;51.436;-2.742;2023-08-20T06:29:46;17.00;71.40
33863;DHT22;20158;51.436;-2.742;2023-08-20T06:32:12;17.00;71.30
33863;DHT22;20158;51.436;-2.742;2023-08-20T06:34:39;17.10;71.40
33863;DHT22;20158;51.436;-2.742;2023-08-20T06:37:06;17.20;71.50
33863;DHT22;20158;51.436;-2.742;2023-08-20T06:39:33;17.20;71.50
33863;DHT22;20158;51.436;-2.742;2023-08-20T06:42:00;17.20;71.50
33863;DHT22;20158;51.436;-2.742;2023-08-20T06:44:26;17.30;71.60
33863;DHT22;20158;51.436;-2.742;2023-08-20T06:46:53;17.40;72.20
33863;DHT22;20158;51.436;-2.742;2023-08-20T06:49:19;17.40;71.70
33863;DHT22;20158;51.436;-2.742;2023-08-20T06:51:46;17.60;71.90
33863;DHT22;20158;51.436;-2.742;2023-08-20T06:54:14;17.70;71.90
33863;DHT22;20158;51.436;-2.742;2023-08-20T06:56:41;17.70;71.90
33863;DHT22;20158;51.436;-2.742;2023-08-20T06:59:08;17.90;72.30
33863;DHT22;20158;51.436;-2.742;2023-08-20T07:01:34;18.20;72.50
33863;DHT22;20158;51.436;-2.742;2023-08-20T07:04:01;18.60;72.40
33863;DHT22;20158;51.436;-2.742;2023-08-20T07:06:27;19.00;72.20
33863;DHT22;20158;51.436;-2.742;2023-08-20T07:08:54;19.50;72.00
33863;DHT22;20158;51.436;-2.742;2023-08-20T07:11:20;20.00;71.60
33863;DHT22;20158;51.436;-2.742;2023-08-20T07:13:47;20.40;71.10
33863;DHT22;20158;51.436;-2.742;2023-08-20T07:16:14;20.90;70.60
33863;DHT22;20158;51.436;-2.742;2023-08-20T07:18:40;21.40;70.10
33863;DHT22;20158;51.436;-2.742;2023-08-20T07:21:07;21.60;69.60
33863;DHT22;20158;51.436;-2.742;2023-08-20T07:23:34;21.90;69.30
33863;DHT22;20158;51.436;-2.742;2023-08-20T07:26:10;21.90;69.00
33863;DHT22;20158;51.436;-2.742;2023-08-20T07:28:38;22.00;69.10
33863;DHT22;20158;51.436;-2.742;2023-08-20T07:31:33;22.20;69.10
33863;DHT22;20158;51.436;-2.742;2023-08-20T07:34:03;22.40;68.60
33863;DHT22;20158;51.436;-2.742;2023-08-20T07:36:30;22.40;68.60
33863;DHT22;20158;51.436;-2.742;2023-08-20T07:38:59;22.50;68.70
33863;DHT22;20158;51.436;-2.742;2023-08-20T07:41:26;22.50;68.40
33863;DHT22;20158;51.436;-2.742;2023-08-20T07:43:53;22.60;68.50
33863;DHT22;20158;51.436;-2.742;2023-08-20T07:46:20;22.70;68.30
33863;DHT22;20158;51.436;-2.742;2023-08-20T07:48:47;22.90;68.30
33863;DHT22;20158;51.436;-2.742;2023-08-20T07:51:16;23.00;68.20
33863;DHT22;20158;51.436;-2.742;2023-08-20T07:53:43;23.20;68.10
33863;DHT22;20158;51.436;-2.742;2023-08-20T07:56:09;23.40;68.00
33863;DHT22;20158;51.436;-2.742;2023-08-20T07:58:39;23.50;67.70
33863;DHT22;20158;51.436;-2.742;2023-08-20T08:01:05;23.70;67.60
33863;DHT22;20158;51.436;-2.742;2023-08-20T08:03:32;23.80;67.40
33863;DHT22;20158;51.436;-2.742;2023-08-20T08:05:58;23.90;67.30
33863;DHT22;20158;51.436;-2.742;2023-08-20T08:08:25;24.00;67.30
33863;DHT22;20158;51.436;-2.742;2023-08-20T08:10:51;24.00;67.20
33863;DHT22;20158;51.436;-2.742;2023-08-20T08:13:21;24.00;67.20
33863;DHT22;20158;51.436;-2.742;2023-08-20T08:15:48;24.00;67.20
33863;DHT22;20158;51.436;-2.742;2023-08-20T08:18:19;24.10;67.20
33863;DHT22;20158;51.436;-2.742;2023-08-20T08:20:46;24.20;67.10
33863;DHT22;20158;51.436;-2.742;2023-08-20T08:23:12;24.30;67.10
33863;DHT22;20158;51.436;-2.742;2023-08-20T08:25:39;24.40;67.00
33863;DHT22;20158;51.436;-2.742;2023-08-20T08:28:06;24.50;66.90
33863;DHT22;20158;51.436;-2.742;2023-08-20T08:30:33;24.60;66.80
33863;DHT22;20158;51.436;-2.742;2023-08-20T08:33:00;24.70;67.30
33863;DHT22;20158;51.436;-2.742;2023-08-20T08:35:32;24.80;66.80
33863;DHT22;20158;51.436;-2.742;2023-08-20T08:37:59;24.90;66.90
33863;DHT22;20158;51.436;-2.742;2023-08-20T08:40:29;24.90;66.90
33863;DHT22;20158;51.436;-2.742;2023-08-20T08:42:56;25.00;67.10
33863;DHT22;20158;51.436;-2.742;2023-08-20T08:45:23;25.10;67.10
33863;DHT22;20158;51.436;-2.742;2023-08-20T08:47:51;25.20;67.00
33863;DHT22;20158;51.436;-2.742;2023-08-20T08:50:19;25.30;66.80
33863;DHT22;20158;51.436;-2.742;2023-08-20T08:52:47;25.40;66.80
33863;DHT22;20158;51.436;-2.742;2023-08-20T08:55:17;25.60;66.90
33863;DHT22;20158;51.436;-2.742;2023-08-20T08:57:44;25.70;66.90
33863;DHT22;20158;51.436;-2.742;2023-08-20T09:00:11;25.80;66.80
33863;DHT22;20158;51.436;-2.742;2023-08-20T09:02:38;26.00;66.90
33863;DHT22;20158;51.436;-2.742;2023-08-20T09:05:05;26.10;67.00
33863;DHT22;20158;51.436;-2.742;2023-08-20T09:07:33;26.20;67.00
33863;DHT22;20158;51.436;-2.742;2023-08-20T09:09:59;26.40;66.80
33863;DHT22;20158;51.436;-2.742;2023-08-20T09:12:27;26.50;66.40
33863;DHT22;20158;51.436;-2.742;2023-08-20T09:14:54;26.50;66.00
33863;DHT22;20158;51.436;-2.742;2023-08-20T09:17:25;26.60;65.60
33863;DHT22;20158;51.436;-2.742;2023-08-20T09:19:55;26.60;65.20
33863;DHT22;20158;51.436;-2.742;2023-08-20T09:22:23;26.60;65.00
33863;DHT22;20158;51.436;-2.742;2023-08-20T09:24:56;26.50;64.70
33863;DHT22;20158;51.436;-2.742;2023-08-20T09:27:23;26.50;64.30
33863;DHT22;20158;51.436;-2.742;2023-08-20T09:29:51;26.60;64.30
33863;DHT22;20158;51.436;-2.742;2023-08-20T09:32:23;26.60;64.00
33863;DHT22;20158;51.436;-2.742;2023-08-20T09:34:53;26.60;63.90
33863;DHT22;20158;51.436;-2.742;2023-08-20T09:37:24;26.60;63.70
33863;DHT22;20158;51.436;-2.742;2023-08-20T09:39:51;26.60;63.60
33863;DHT22;20158;51.436;-2.742;2023-08-20T09:42:18;26.60;63.50
33863;DHT22;20158;51.436;-2.742;2023-08-20T09:44:46;26.60;63.40
33863;DHT22;20158;51.436;-2.742;2023-08-20T09:47:14;26.50;63.30
33863;DHT22;20158;51.436;-2.742;2023-08-20T09:49:50;26.40;63.30
33863;DHT22;20158;51.436;-2.742;2023-08-20T09:52:27;26.30;63.40
33863;DHT22;20158;51.436;-2.742;2023-08-20T09:57:40;26.10;63.40
33863;DHT22;20158;51.436;-2.742;2023-08-20T10:00:08;26.10;63.50
33863;DHT22;20158;51.436;-2.742;2023-08-20T10:02:42;26.10;63.50
33863;DHT22;20158;51.436;-2.742;2023-08-20T10:05:10;26.00;63.90
33863;DHT22;20158;51.436;-2.742;2023-08-20T10:07:37;26.10;63.50
33863;DHT22;20158;51.436;-2.742;2023-08-20T10:10:06;26.10;63.40
33863;DHT22;20158;51.436;-2.742;2023-08-20T10:12:33;26.10;63.30
33863;DHT22;20158;51.436;-2.742;2023-08-20T10:15:01;26.00;63.20
33863;DHT22;20158;51.436;-2.742;2023-08-20T10:17:29;26.00;63.00
33863;DHT22;20158;51.436;-2.742;2023-08-20T10:19:58;26.10;63.10
33863;DHT22;20158;51.436;-2.742;2023-08-20T10:22:53;26.10;63.00
33863;DHT22;20158;51.436;-2.742;2023-08-20T10:25:24;26.20;62.80
33863;DHT22;20158;51.436;-2.742;2023-08-20T10:27:51;26.30;62.90
33863;DHT22;20158;51.436;-2.742;2023-08-20T10:30:22;26.40;62.70
33863;DHT22;20158;51.436;-2.742;2023-08-20T10:32:51;26.50;62.50
33863;DHT22;20158;51.436;-2.742;2023-08-20T10:35:28;26.60;62.30
33863;DHT22;20158;51.436;-2.742;2023-08-20T10:43:40;26.70;62.20
33863;DHT22;20158;51.436;-2.742;2023-08-20T10:46:22;26.80;62.30
33863;DHT22;20158;51.436;-2.742;2023-08-20T10:48:55;26.90;62.40
33863;DHT22;20158;51.436;-2.742;2023-08-20T10:51:34;27.00;62.30
33863;DHT22;20158;51.436;-2.742;2023-08-20T10:59:08;27.40;62.50
33863;DHT22;20158;51.436;-2.742;2023-08-20T11:01:43;27.50;62.40
33863;DHT22;20158;51.436;-2.742;2023-08-20T11:04:15;27.60;62.30
33863;DHT22;20158;51.436;-2.742;2023-08-20T11:06:41;27.70;62.40
33863;DHT22;20158;51.436;-2.742;2023-08-20T11:09:08;27.80;62.50
33863;DHT22;20158;51.436;-2.742;2023-08-20T11:11:34;28.00;62.50
33863;DHT22;20158;51.436;-2.742;2023-08-20T11:14:09;28.00;62.40
33863;DHT22;20158;51.436;-2.742;2023-08-20T11:16:38;28.20;62.40
33863;DHT22;20158;51.436;-2.742;2023-08-20T11:19:05;28.30;62.30
33863;DHT22;20158;51.436;-2.742;2023-08-20T11:21:38;28.40;62.10
33863;DHT22;20158;51.436;-2.742;2023-08-20T11:24:06;28.40;62.10
33863;DHT22;20158;51.436;-2.742;2023-08-20T11:26:39;28.50;62.00
33863;DHT22;20158;51.436;-2.742;2023-08-20T11:29:07;28.50;61.70
33863;DHT22;20158;51.436;-2.742;2023-08-20T11:31:33;28.50;61.70
33863;DHT22;20158;51.436;-2.742;2023-08-20T11:34:02;28.40;61.70
33863;DHT22;20158;51.436;-2.742;2023-08-20T11:36:29;28.40;61.90
33863;DHT22;20158;51.436;-2.742;2023-08-20T11:38:58;28.30;62.60
33863;DHT22;20158;51.436;-2.742;2023-08-20T11:41:25;28.20;62.10
33863;DHT22;20158;51.436;-2.742;2023-08-20T11:43:52;28.20;62.30
33863;DHT22;20158;51.436;-2.742;2023-08-20T11:46:20;28.20;62.40
33863;DHT22;20158;51.436;-2.742;2023-08-20T11:49:07;28.20;62.60
33863;DHT22;20158;51.436;-2.742;2023-08-20T11:51:39;28.20;62.70
33863;DHT22;20158;51.436;-2.742;2023-08-20T11:54:07;28.30;62.60
33863;DHT22;20158;51.436;-2.742;2023-08-20T11:56:35;28.40;62.30
33863;DHT22;20158;51.436;-2.742;2023-08-20T11:59:02;28.40;62.20
33863;DHT22;20158;51.436;-2.742;2023-08-20T12:01:32;28.50;62.10
33863;DHT22;20158;51.436;-2.742;2023-08-20T12:04:03;28.50;61.70
33863;DHT22;20158;51.436;-2.742;2023-08-20T12:06:30;28.60;61.70
33863;DHT22;20158;51.436;-2.742;2023-08-20T12:09:01;28.50;61.60
33863;DHT22;20158;51.436;-2.742;2023-08-20T12:11:28;28.40;61.60
33863;DHT22;20158;51.436;-2.742;2023-08-20T12:13:55;28.30;61.60
33863;DHT22;20158;51.436;-2.742;2023-08-20T12:16:23;28.20;61.70
33863;DHT22;20158;51.436;-2.742;2023-08-20T12:18:58;28.10;61.70
33863;DHT22;20158;51.436;-2.742;2023-08-20T12:21:24;28.00;61.70
33863;DHT22;20158;51.436;-2.742;2023-08-20T12:24:00;27.90;61.80
33863;DHT22;20158;51.436;-2.742;2023-08-20T12:26:26;27.90;62.00
33863;DHT22;20158;51.436;-2.742;2023-08-20T12:28:53;27.80;62.00
33863;DHT22;20158;51.436;-2.742;2023-08-20T12:31:19;27.80;62.10
33863;DHT22;20158;51.436;-2.742;2023-08-20T12:33:45;27.80;62.10
33863;DHT22;20158;51.436;-2.742;2023-08-20T12:36:11;27.90;62.10
33863;DHT22;20158;51.436;-2.742;2023-08-20T12:38:37;27.90;62.00
33863;DHT22;20158;51.436;-2.742;2023-08-20T12:41:03;28.00;61.70
33863;DHT22;20158;51.436;-2.742;2023-08-20T12:43:31;27.90;61.90
33863;DHT22;20158;51.436;-2.742;2023-08-20T12:45:57;27.70;61.70
33863;DHT22;20158;51.436;-2.742;2023-08-20T12:48:23;27.60;61.90
33863;DHT22;20158;51.436;-2.742;2023-08-20T12:50:50;27.40;62.00
33863;DHT22;20158;51.436;-2.742;2023-08-20T12:53:16;27.30;62.30
33863;DHT22;20158;51.436;-2.742;2023-08-20T12:55:42;27.10;62.50
33863;DHT22;20158;51.436;-2.742;2023-08-20T12:58:08;27.00;62.70
33863;DHT22;20158;51.436;-2.742;2023-08-20T13:00:35;26.80;62.70
33863;DHT22;20158;51.436;-2.742;2023-08-20T13:03:01;26.70;62.80
33863;DHT22;20158;51.436;-2.742;2023-08-20T13:05:28;26.70;62.80
33863;DHT22;20158;51.436;-2.742;2023-08-20T13:07:54;26.70;62.70
33863;DHT22;20158;51.436;-2.742;2023-08-20T13:10:21;26.70;62.50
33863;DHT22;20158;51.436;-2.742;2023-08-20T13:12:50;26.80;62.50
33863;DHT22;20158;51.436;-2.742;2023-08-20T13:15:21;26.80;62.30
33863;DHT22;20158;51.436;-2.742;2023-08-20T13:17:49;26.90;62.20
33863;DHT22;20158;51.436;-2.742;2023-08-20T13:20:21;27.00;62.20
33863;DHT22;20158;51.436;-2.742;2023-08-20T13:22:58;27.10;62.20
33863;DHT22;20158;51.436;-2.742;2023-08-20T13:25:24;27.20;62.20
33863;DHT22;20158;51.436;-2.742;2023-08-20T13:27:52;27.20;62.00
33863;DHT22;20158;51.436;-2.742;2023-08-20T13:30:18;27.20;62.00
33863;DHT22;20158;51.436;-2.742;2023-08-20T13:32:45;27.30;62.00
33863;DHT22;20158;51.436;-2.742;2023-08-20T13:35:11;27.40;62.00
33863;DHT22;20158;51.436;-2.742;2023-08-20T13:37:37;27.60;61.90
33863;DHT22;20158;51.436;-2.742;2023-08-20T13:40:04;27.80;61.80
33863;DHT22;20158;51.436;-2.742;2023-08-20T13:42:31;27.90;61.60
33863;DHT22;20158;51.436;-2.742;2023-08-20T13:44:57;28.10;61.40
33863;DHT22;20158;51.436;-2.742;2023-08-20T13:47:23;28.20;61.30
33863;DHT22;20158;51.436;-2.742;2023-08-20T13:49:49;28.30;61.10
33863;DHT22;20158;51.436;-2.742;2023-08-20T13:52:16;28.50;60.90
33863;DHT22;20158;51.436;-2.742;2023-08-20T13:54:42;28.60;60.50
33863;DHT22;20158;51.436;-2.742;2023-08-20T13:57:09;28.80;60.30
33863;DHT22;20158;51.436;-2.742;2023-08-20T13:59:36;28.90;60.00
33863;DHT22;20158;51.436;-2.742;2023-08-20T14:02:02;29.00;60.00
33863;DHT22;20158;51.436;-2.742;2023-08-20T14:04:29;29.10;59.80
33863;DHT22;20158;51.436;-2.742;2023-08-20T14:06:55;29.10;59.60
33863;DHT22;20158;51.436;-2.742;2023-08-20T14:09:22;29.10;59.60
33863;DHT22;20158;51.436;-2.742;2023-08-20T14:11:48;29.30;59.60
33863;DHT22;20158;51.436;-2.742;2023-08-20T14:14:14;29.50;59.70
33863;DHT22;20158;51.436;-2.742;2023-08-20T14:16:40;29.70;58.90
33863;DHT22;20158;51.436;-2.742;2023-08-20T14:19:10;29.90;58.60
33863;DHT22;20158;51.436;-2.742;2023-08-20T14:21:37;30.00;58.40
33863;DHT22;20158;51.436;-2.742;2023-08-20T14:24:03;30.20;58.10
33863;DHT22;20158;51.436;-2.742;2023-08-20T14:26:30;30.30;57.80
33863;DHT22;20158;51.436;-2.742;2023-08-20T14:28:56;30.50;57.50
33863;DHT22;20158;51.436;-2.742;2023-08-20T14:31:23;30.50;57.10
33863;DHT22;20158;51.436;-2.742;2023-08-20T14:33:49;30.50;57.10
33863;DHT22;20158;51.436;-2.742;2023-08-20T14:36:15;30.40;57.10
33863;DHT22;20158;51.436;-2.742;2023-08-20T14:38:42;30.30;57.40
33863;DHT22;20158;51.436;-2.742;2023-08-20T14:41:08;30.10;57.50
33863;DHT22;20158;51.436;-2.742;2023-08-20T14:43:34;30.10;57.50
33863;DHT22;20158;51.436;-2.742;2023-08-20T14:46:01;30.10;57.50
33863;DHT22;20158;51.436;-2.742;2023-08-20T14:48:30;29.80;57.60
33863;DHT22;20158;51.436;-2.742;2023-08-20T14:51:00;29.60;57.80
33863;DHT22;20158;51.436;-2.742;2023-08-20T14:53:26;29.20;58.10
33863;DHT22;20158;51.436;-2.742;2023-08-20T14:55:53;28.80;58.50
33863;DHT22;20158;51.436;-2.742;2023-08-20T14:58:20;28.40;59.10
33863;DHT22;20158;51.436;-2.742;2023-08-20T15:00:48;28.10;59.80
33863;DHT22;20158;51.436;-2.742;2023-08-20T15:03:15;27.80;60.60
33863;DHT22;20158;51.436;-2.742;2023-08-20T15:05:42;27.50;61.20
33863;DHT22;20158;51.436;-2.742;2023-08-20T15:08:09;27.20;61.60
33863;DHT22;20158;51.436;-2.742;2023-08-20T15:10:35;27.10;62.00
33863;DHT22;20158;51.436;-2.742;2023-08-20T15:13:01;26.90;62.30
33863;DHT22;20158;51.436;-2.742;2023-08-20T15:15:31;26.80;62.70
33863;DHT22;20158;51.436;-2.742;2023-08-20T15:17:57;26.70;63.20
33863;DHT22;20158;51.436;-2.742;2023-08-20T15:20:24;26.60;63.50
33863;DHT22;20158;51.436;-2.742;2023-08-20T15:22:51;26.60;63.70
33863;DHT22;20158;51.436;-2.742;2023-08-20T15:25:17;26.60;64.00
33863;DHT22;20158;51.436;-2.742;2023-08-20T15:27:44;26.70;64.10
33863;DHT22;20158;51.436;-2.742;2023-08-20T15:30:14;26.70;64.20
33863;DHT22;20158;51.436;-2.742;2023-08-20T15:32:41;26.80;64.30
33863;DHT22;20158;51.436;-2.742;2023-08-20T15:35:19;26.80;64.40
33863;DHT22;20158;51.436;-2.742;2023-08-20T15:37:45;26.70;64.60
33863;DHT22;20158;51.436;-2.742;2023-08-20T15:40:12;26.70;64.80